sensor_id;sensor_type;location;lat;lon;timestamp;P1;durP1;ratioP1;P2;durP2;ratioP2
57565;SDS011;63999;43.882;-0.310;2023-07-13T00:00:12;2.80;;;1.48;;
57565;SDS011;63999;43.882;-0.310;2023-07-13T00:02:46;4.35;;;1.50;;
57565;SDS011;63999;43.882;-0.310;2023-07-13T00:05:26;3.38;;;1.30;;
57565;SDS011;63999;43.882;-0.310;2023-07-13T00:07:59;4.25;;;1.60;;
57565;SDS011;63999;43.882;-0.310;2023-07-13T00:10:28;5.18;;;1.58;;
57565;SDS011;63999;43.882;-0.310;2023-07-13T00:12:54;4.18;;;1.40;;
57565;SDS011;63999;43.882;-0.310;2023-07-13T00:15:26;8.55;;;1.90;;
57565;SDS011;63999;43.882;-0.310;2023-07-13T00:17:56;6.13;;;1.70;;
57565;SDS011;63999;43.882;-0.310;2023-07-13T00:20:28;3.72;;;1.52;;
57565;SDS011;63999;43.882;-0.310;2023-07-13T00:22:58;3.70;;;1.30;;
57565;SDS011;63999;43.882;-0.310;2023-07-13T00:25:23;6.30;;;1.40;;
57565;SDS011;63999;43.882;-0.310;2023-07-13T00:27:55;3.95;;;1.60;;
57565;SDS011;63999;43.882;-0.310;2023-07-13T00:30:23;4.80;;;1.90;;
57565;SDS011;63999;43.882;-0.310;2023-07-13T00:32:53;4.38;;;1.63;;
57565;SDS011;63999;43.882;-0.310;2023-07-13T00:35:27;4.97;;;1.75;;
57565;SDS011;63999;43.882;-0.310;2023-07-13T00:37:58;4.88;;;1.50;;
57565;SDS011;63999;43.882;-0.310;2023-07-13T00:40:29;4.82;;;1.40;;
57565;SDS011;63999;43.882;-0.310;2023-07-13T00:43:00;3.90;;;1.58;;
57565;SDS011;63999;43.882;-0.310;2023-07-13T00:47:55;3.72;;;1.55;;
57565;SDS011;63999;43.882;-0.310;2023-07-13T00:50:28;5.15;;;1.80;;
57565;SDS011;63999;43.882;-0.310;2023-07-13T00:52:53;2.90;;;1.25;;
57565;SDS011;63999;43.882;-0.310;2023-07-13T00:55:29;5.22;;;1.73;;
57565;SDS011;63999;43.882;-0.310;2023-07-13T00:57:58;3.15;;;1.42;;
57565;SDS011;63999;43.882;-0.310;2023-07-13T01:00:34;3.15;;;1.48;;
57565;SDS011;63999;43.882;-0.310;2023-07-13T01:03:04;5.77;;;1.53;;
57565;SDS011;63999;43.882;-0.310;2023-07-13T01:05:37;2.80;;;1.33;;
57565;SDS011;63999;43.882;-0.310;2023-07-13T01:08:06;5.00;;;1.60;;
57565;SDS011;63999;43.882;-0.310;2023-07-13T01:10:34;4.78;;;1.70;;
57565;SDS011;63999;43.882;-0.310;2023-07-13T01:13:07;7.75;;;1.70;;
57565;SDS011;63999;43.882;-0.310;2023-07-13T01:15:39;3.22;;;1.50;;
57565;SDS011;63999;43.882;-0.310;2023-07-13T01:18:13;4.07;;;1.55;;
57565;SDS011;63999;43.882;-0.310;2023-07-13T01:21:03;4.57;;;1.70;;
57565;SDS011;63999;43.882;-0.310;2023-07-13T01:23:32;4.85;;;1.60;;
57565;SDS011;63999;43.882;-0.310;2023-07-13T01:26:01;4.03;;;1.60;;
57565;SDS011;63999;43.882;-0.310;2023-07-13T01:28:32;6.55;;;1.67;;
57565;SDS011;63999;43.882;-0.310;2023-07-13T01:33:30;4.57;;;1.50;;
57565;SDS011;63999;43.882;-0.310;2023-07-13T01:38:36;6.40;;;1.90;;
57565;SDS011;63999;43.882;-0.310;2023-07-13T01:41:09;3.17;;;1.30;;
57565;SDS011;63999;43.882;-0.310;2023-07-13T01:43:40;4.32;;;1.85;;
57565;SDS011;63999;43.882;-0.310;2023-07-13T01:46:06;3.38;;;1.50;;
57565;SDS011;63999;43.882;-0.310;2023-07-13T01:48:40;4.40;;;1.52;;
57565;SDS011;63999;43.882;-0.310;2023-07-13T01:51:12;5.03;;;1.70;;
57565;SDS011;63999;43.882;-0.310;2023-07-13T01:53:39;7.57;;;1.88;;
57565;SDS011;63999;43.882;-0.310;2023-07-13T01:56:09;3.80;;;1.70;;
57565;SDS011;63999;43.882;-0.310;2023-07-13T01:58:40;5.68;;;1.70;;
57565;SDS011;63999;43.882;-0.310;2023-07-13T02:01:08;5.00;;;1.80;;
57565;SDS011;63999;43.882;-0.310;2023-07-13T02:03:34;6.25;;;1.85;;
57565;SDS011;63999;43.882;-0.310;2023-07-13T02:06:12;5.38;;;1.80;;
57565;SDS011;63999;43.882;-0.310;2023-07-13T02:08:46;5.13;;;2.00;;
57565;SDS011;63999;43.882;-0.310;2023-07-13T02:11:14;4.05;;;1.70;;
57565;SDS011;63999;43.882;-0.310;2023-07-13T02:13:48;6.32;;;2.00;;
57565;SDS011;63999;43.882;-0.310;2023-07-13T02:16:17;4.95;;;2.00;;
57565;SDS011;63999;43.882;-0.310;2023-07-13T02:18:46;3.90;;;1.60;;
57565;SDS011;63999;43.882;-0.310;2023-07-13T02:21:21;5.57;;;1.90;;
57565;SDS011;63999;43.882;-0.310;2023-07-13T02:23:54;4.10;;;2.00;;
57565;SDS011;63999;43.882;-0.310;2023-07-13T02:28:54;4.53;;;2.25;;
57565;SDS011;63999;43.882;-0.310;2023-07-13T02:31:22;7.03;;;1.70;;
57565;SDS011;63999;43.882;-0.310;2023-07-13T02:33:54;5.93;;;2.20;;
57565;SDS011;63999;43.882;-0.310;2023-07-13T02:36:23;6.82;;;1.70;;
57565;SDS011;63999;43.882;-0.310;2023-07-13T02:38:54;3.70;;;1.60;;
57565;SDS011;63999;43.882;-0.310;2023-07-13T02:41:28;5.70;;;1.85;;
57565;SDS011;63999;43.882;-0.310;2023-07-13T02:44:02;4.53;;;2.00;;
57565;SDS011;63999;43.882;-0.310;2023-07-13T02:46:39;7.15;;;2.28;;
57565;SDS011;63999;43.882;-0.310;2023-07-13T02:49:10;4.50;;;2.05;;
57565;SDS011;63999;43.882;-0.310;2023-07-13T02:51:42;9.90;;;2.17;;
57565;SDS011;63999;43.882;-0.310;2023-07-13T02:54:10;5.72;;;1.98;;
57565;SDS011;63999;43.882;-0.310;2023-07-13T02:56:41;5.60;;;2.03;;
57565;SDS011;63999;43.882;-0.310;2023-07-13T02:59:08;3.78;;;1.73;;
57565;SDS011;63999;43.882;-0.310;2023-07-13T03:01:37;4.45;;;2.00;;
57565;SDS011;63999;43.882;-0.310;2023-07-13T03:04:06;5.35;;;1.98;;
57565;SDS011;63999;43.882;-0.310;2023-07-13T03:06:40;7.45;;;2.10;;
57565;SDS011;63999;43.882;-0.310;2023-07-13T03:09:08;7.07;;;1.85;;
57565;SDS011;63999;43.882;-0.310;2023-07-13T03:11:36;6.68;;;2.00;;
57565;SDS011;63999;43.882;-0.310;2023-07-13T03:14:08;3.85;;;1.83;;
57565;SDS011;63999;43.882;-0.310;2023-07-13T03:19:08;7.23;;;1.87;;
57565;SDS011;63999;43.882;-0.310;2023-07-13T03:21:36;6.32;;;2.05;;
57565;SDS011;63999;43.882;-0.310;2023-07-13T03:24:07;3.80;;;1.98;;
57565;SDS011;63999;43.882;-0.310;2023-07-13T03:26:38;4.80;;;1.90;;
57565;SDS011;63999;43.882;-0.310;2023-07-13T03:29:07;6.28;;;2.05;;
57565;SDS011;63999;43.882;-0.310;2023-07-13T03:31:36;6.68;;;2.33;;
57565;SDS011;63999;43.882;-0.310;2023-07-13T03:34:09;3.72;;;1.77;;
57565;SDS011;63999;43.882;-0.310;2023-07-13T03:36:43;4.72;;;1.83;;
57565;SDS011;63999;43.882;-0.310;2023-07-13T03:39:15;6.22;;;2.00;;
57565;SDS011;63999;43.882;-0.310;2023-07-13T03:41:46;5.82;;;2.03;;
57565;SDS011;63999;43.882;-0.310;2023-07-13T03:44:17;5.28;;;2.10;;
57565;SDS011;63999;43.882;-0.310;2023-07-13T03:46:43;4.60;;;2.40;;
57565;SDS011;63999;43.882;-0.310;2023-07-13T03:49:14;5.78;;;2.00;;
57565;SDS011;63999;43.882;-0.310;2023-07-13T03:51:45;5.82;;;2.25;;
57565;SDS011;63999;43.882;-0.310;2023-07-13T03:54:16;6.15;;;2.08;;
57565;SDS011;63999;43.882;-0.310;2023-07-13T03:56:51;5.97;;;2.15;;
57565;SDS011;63999;43.882;-0.310;2023-07-13T03:59:23;4.00;;;2.00;;
57565;SDS011;63999;43.882;-0.310;2023-07-13T04:01:55;4.07;;;1.98;;
57565;SDS011;63999;43.882;-0.310;2023-07-13T04:04:25;4.63;;;2.28;;
57565;SDS011;63999;43.882;-0.310;2023-07-13T04:06:51;5.13;;;1.73;;
57565;SDS011;63999;43.882;-0.310;2023-07-13T04:09:20;6.10;;;1.83;;
57565;SDS011;63999;43.882;-0.310;2023-07-13T04:11:51;5.55;;;2.20;;
57565;SDS011;63999;43.882;-0.310;2023-07-13T04:14:24;6.60;;;2.20;;
57565;SDS011;63999;43.882;-0.310;2023-07-13T04:16:50;5.50;;;1.92;;
57565;SDS011;63999;43.882;-0.310;2023-07-13T04:19:22;3.22;;;1.90;;
57565;SDS011;63999;43.882;-0.310;2023-07-13T04:21:54;5.93;;;2.08;;
57565;SDS011;63999;43.882;-0.310;2023-07-13T04:24:29;6.47;;;2.58;;
57565;SDS011;63999;43.882;-0.310;2023-07-13T04:27:06;4.72;;;1.83;;
57565;SDS011;63999;43.882;-0.310;2023-07-13T04:29:46;5.35;;;2.17;;
57565;SDS011;63999;43.882;-0.310;2023-07-13T04:32:14;5.55;;;1.80;;
57565;SDS011;63999;43.882;-0.310;2023-07-13T04:34:45;6.18;;;1.98;;
57565;SDS011;63999;43.882;-0.310;2023-07-13T04:37:14;5.10;;;1.98;;
57565;SDS011;63999;43.882;-0.310;2023-07-13T04:39:45;4.20;;;2.10;;
57565;SDS011;63999;43.882;-0.310;2023-07-13T04:42:16;7.75;;;2.05;;
57565;SDS011;63999;43.882;-0.310;2023-07-13T04:44:51;4.78;;;2.20;;
57565;SDS011;63999;43.882;-0.310;2023-07-13T04:47:19;4.60;;;1.95;;
57565;SDS011;63999;43.882;-0.310;2023-07-13T04:49:50;6.47;;;1.95;;
57565;SDS011;63999;43.882;-0.310;2023-07-13T04:52:22;4.68;;;2.00;;
57565;SDS011;63999;43.882;-0.310;2023-07-13T04:54:52;5.82;;;2.30;;
57565;SDS011;63999;43.882;-0.310;2023-07-13T04:57:20;5.05;;;2.03;;
57565;SDS011;63999;43.882;-0.310;2023-07-13T04:59:48;5.70;;;2.30;;
57565;SDS011;63999;43.882;-0.310;2023-07-13T05:02:25;5.13;;;2.00;;
57565;SDS011;63999;43.882;-0.310;2023-07-13T05:04:59;4.80;;;2.10;;
57565;SDS011;63999;43.882;-0.310;2023-07-13T05:07:35;4.47;;;2.10;;
57565;SDS011;63999;43.882;-0.310;2023-07-13T05:10:04;4.47;;;2.10;;
57565;SDS011;63999;43.882;-0.310;2023-07-13T05:12:36;5.53;;;1.90;;
57565;SDS011;63999;43.882;-0.310;2023-07-13T05:15:05;4.53;;;1.95;;
57565;SDS011;63999;43.882;-0.310;2023-07-13T05:17:37;5.97;;;1.90;;
57565;SDS011;63999;43.882;-0.310;2023-07-13T05:20:08;5.75;;;2.58;;
57565;SDS011;63999;43.882;-0.310;2023-07-13T05:22:34;4.55;;;2.22;;
57565;SDS011;63999;43.882;-0.310;2023-07-13T05:25:06;5.25;;;1.92;;
57565;SDS011;63999;43.882;-0.310;2023-07-13T05:27:33;3.83;;;2.15;;
57565;SDS011;63999;43.882;-0.310;2023-07-13T05:30:02;3.92;;;2.13;;
57565;SDS011;63999;43.882;-0.310;2023-07-13T05:32:29;6.05;;;2.45;;
57565;SDS011;63999;43.882;-0.310;2023-07-13T05:35:00;5.75;;;1.95;;
57565;SDS011;63999;43.882;-0.310;2023-07-13T05:37:29;6.18;;;2.25;;
57565;SDS011;63999;43.882;-0.310;2023-07-13T05:39:57;4.97;;;2.20;;
57565;SDS011;63999;43.882;-0.310;2023-07-13T05:42:28;4.75;;;2.50;;
57565;SDS011;63999;43.882;-0.310;2023-07-13T05:44:59;6.30;;;2.33;;
57565;SDS011;63999;43.882;-0.310;2023-07-13T05:47:27;4.53;;;2.20;;
57565;SDS011;63999;43.882;-0.310;2023-07-13T05:50:02;7.60;;;2.20;;
57565;SDS011;63999;43.882;-0.310;2023-07-13T05:52:35;6.47;;;2.40;;
57565;SDS011;63999;43.882;-0.310;2023-07-13T05:55:06;6.40;;;2.20;;
57565;SDS011;63999;43.882;-0.310;2023-07-13T05:57:39;6.32;;;2.40;;
57565;SDS011;63999;43.882;-0.310;2023-07-13T06:00:05;5.63;;;2.13;;
57565;SDS011;63999;43.882;-0.310;2023-07-13T06:02:40;5.95;;;2.22;;
57565;SDS011;63999;43.882;-0.310;2023-07-13T06:05:11;5.82;;;2.40;;
57565;SDS011;63999;43.882;-0.310;2023-07-13T06:07:42;7.68;;;2.80;;
57565;SDS011;63999;43.882;-0.310;2023-07-13T06:10:10;6.20;;;2.10;;
57565;SDS011;63999;43.882;-0.310;2023-07-13T06:12:38;3.90;;;1.92;;
57565;SDS011;63999;43.882;-0.310;2023-07-13T06:15:08;4.45;;;1.63;;
57565;SDS011;63999;43.882;-0.310;2023-07-13T06:17:37;3.90;;;1.63;;
57565;SDS011;63999;43.882;-0.310;2023-07-13T06:20:06;4.07;;;1.83;;
57565;SDS011;63999;43.882;-0.310;2023-07-13T06:22:34;5.25;;;1.77;;
57565;SDS011;63999;43.882;-0.310;2023-07-13T06:25:03;7.47;;;1.75;;
57565;SDS011;63999;43.882;-0.310;2023-07-13T06:27:31;4.13;;;1.60;;
57565;SDS011;63999;43.882;-0.310;2023-07-13T06:29:59;5.10;;;1.75;;
57565;SDS011;63999;43.882;-0.310;2023-07-13T06:32:31;3.88;;;1.27;;
57565;SDS011;63999;43.882;-0.310;2023-07-13T06:34:57;4.63;;;1.65;;
57565;SDS011;63999;43.882;-0.310;2023-07-13T06:37:30;5.13;;;1.75;;
57565;SDS011;63999;43.882;-0.310;2023-07-13T06:40:01;5.93;;;1.70;;
57565;SDS011;63999;43.882;-0.310;2023-07-13T06:42:32;4.63;;;1.70;;
57565;SDS011;63999;43.882;-0.310;2023-07-13T06:45:03;1.60;;;0.90;;
57565;SDS011;63999;43.882;-0.310;2023-07-13T06:47:34;5.13;;;1.77;;
57565;SDS011;63999;43.882;-0.310;2023-07-13T06:50:08;3.83;;;1.60;;
57565;SDS011;63999;43.882;-0.310;2023-07-13T06:52:37;5.75;;;1.65;;
57565;SDS011;63999;43.882;-0.310;2023-07-13T06:55:11;4.60;;;1.50;;
57565;SDS011;63999;43.882;-0.310;2023-07-13T06:57:37;3.75;;;1.35;;
57565;SDS011;63999;43.882;-0.310;2023-07-13T07:00:09;6.63;;;1.52;;
57565;SDS011;63999;43.882;-0.310;2023-07-13T07:02:35;4.10;;;1.40;;
57565;SDS011;63999;43.882;-0.310;2023-07-13T07:05:09;5.10;;;1.60;;
57565;SDS011;63999;43.882;-0.310;2023-07-13T07:07:38;6.05;;;1.10;;
57565;SDS011;63999;43.882;-0.310;2023-07-13T07:10:06;3.10;;;1.48;;
57565;SDS011;63999;43.882;-0.310;2023-07-13T07:12:45;2.53;;;1.30;;
57565;SDS011;63999;43.882;-0.310;2023-07-13T07:15:21;4.53;;;1.20;;
57565;SDS011;63999;43.882;-0.310;2023-07-13T07:17:53;3.53;;;1.20;;
57565;SDS011;63999;43.882;-0.310;2023-07-13T07:22:53;1.30;;;0.90;;
57565;SDS011;63999;43.882;-0.310;2023-07-13T07:25:24;2.33;;;0.98;;
57565;SDS011;63999;43.882;-0.310;2023-07-13T07:27:50;3.55;;;1.10;;
57565;SDS011;63999;43.882;-0.310;2023-07-13T07:30:16;6.03;;;1.08;;
57565;SDS011;63999;43.882;-0.310;2023-07-13T07:32:44;4.40;;;1.30;;
57565;SDS011;63999;43.882;-0.310;2023-07-13T07:35:13;3.13;;;1.08;;
57565;SDS011;63999;43.882;-0.310;2023-07-13T07:37:45;2.08;;;0.70;;
57565;SDS011;63999;43.882;-0.310;2023-07-13T07:40:16;3.88;;;1.08;;
57565;SDS011;63999;43.882;-0.310;2023-07-13T07:42:46;5.82;;;0.98;;
57565;SDS011;63999;43.882;-0.310;2023-07-13T07:45:17;2.65;;;0.90;;
57565;SDS011;63999;43.882;-0.310;2023-07-13T07:47:43;3.35;;;1.23;;
57565;SDS011;63999;43.882;-0.310;2023-07-13T07:50:15;5.13;;;1.63;;
57565;SDS011;63999;43.882;-0.310;2023-07-13T07:52:45;1.85;;;1.00;;
57565;SDS011;63999;43.882;-0.310;2023-07-13T07:55:14;3.80;;;1.00;;
57565;SDS011;63999;43.882;-0.310;2023-07-13T07:57:55;1.73;;;0.88;;
57565;SDS011;63999;43.882;-0.310;2023-07-13T08:00:21;4.82;;;1.17;;
57565;SDS011;63999;43.882;-0.310;2023-07-13T08:02:53;2.13;;;0.98;;
57565;SDS011;63999;43.882;-0.310;2023-07-13T08:05:19;1.60;;;0.65;;
57565;SDS011;63999;43.882;-0.310;2023-07-13T08:07:50;2.00;;;0.63;;
57565;SDS011;63999;43.882;-0.310;2023-07-13T08:10:16;4.50;;;0.73;;
57565;SDS011;63999;43.882;-0.310;2023-07-13T08:12:48;2.15;;;0.80;;
57565;SDS011;63999;43.882;-0.310;2023-07-13T08:15:22;2.45;;;0.80;;
57565;SDS011;63999;43.882;-0.310;2023-07-13T08:17:53;2.25;;;0.80;;
57565;SDS011;63999;43.882;-0.310;2023-07-13T08:20:19;18.70;;;1.40;;
57565;SDS011;63999;43.882;-0.310;2023-07-13T08:22:47;1.80;;;0.90;;
57565;SDS011;63999;43.882;-0.310;2023-07-13T08:25:24;2.72;;;0.77;;
57565;SDS011;63999;43.882;-0.310;2023-07-13T08:28:00;4.97;;;1.10;;
57565;SDS011;63999;43.882;-0.310;2023-07-13T08:30:35;1.73;;;0.80;;
57565;SDS011;63999;43.882;-0.310;2023-07-13T08:33:06;1.65;;;0.60;;
57565;SDS011;63999;43.882;-0.310;2023-07-13T08:35:37;2.50;;;0.70;;
57565;SDS011;63999;43.882;-0.310;2023-07-13T08:38:11;3.33;;;0.97;;
57565;SDS011;63999;43.882;-0.310;2023-07-13T08:40:52;2.97;;;0.80;;
57565;SDS011;63999;43.882;-0.310;2023-07-13T08:43:25;4.68;;;0.93;;
57565;SDS011;63999;43.882;-0.310;2023-07-13T08:46:16;4.35;;;1.10;;
57565;SDS011;63999;43.882;-0.310;2023-07-13T08:51:34;3.03;;;1.00;;
57565;SDS011;63999;43.882;-0.310;2023-07-13T08:54:19;4.10;;;0.80;;
57565;SDS011;63999;43.882;-0.310;2023-07-13T08:56:58;3.60;;;1.10;;
57565;SDS011;63999;43.882;-0.310;2023-07-13T08:59:31;2.25;;;0.73;;
57565;SDS011;63999;43.882;-0.310;2023-07-13T09:04:49;4.15;;;1.10;;
57565;SDS011;63999;43.882;-0.310;2023-07-13T09:07:32;2.92;;;0.90;;
57565;SDS011;63999;43.882;-0.310;2023-07-13T09:10:18;2.42;;;0.98;;
57565;SDS011;63999;43.882;-0.310;2023-07-13T09:15:55;3.13;;;1.05;;
57565;SDS011;63999;43.882;-0.310;2023-07-13T09:23:37;5.45;;;1.02;;
57565;SDS011;63999;43.882;-0.310;2023-07-13T09:26:17;2.38;;;1.05;;
57565;SDS011;63999;43.882;-0.310;2023-07-13T09:28:51;1.00;;;0.77;;
57565;SDS011;63999;43.882;-0.310;2023-07-13T09:31:43;3.05;;;1.10;;
57565;SDS011;63999;43.882;-0.310;2023-07-13T09:34:16;5.75;;;1.10;;
57565;SDS011;63999;43.882;-0.310;2023-07-13T09:36:47;4.22;;;0.95;;
57565;SDS011;63999;43.882;-0.310;2023-07-13T09:39:29;7.75;;;1.10;;
57565;SDS011;63999;43.882;-0.310;2023-07-13T09:42:07;3.67;;;1.20;;
57565;SDS011;63999;43.882;-0.310;2023-07-13T09:44:51;4.53;;;1.08;;
57565;SDS011;63999;43.882;-0.310;2023-07-13T09:47:27;1.80;;;0.77;;
57565;SDS011;63999;43.882;-0.310;2023-07-13T09:50:03;2.10;;;0.82;;
57565;SDS011;63999;43.882;-0.310;2023-07-13T09:52:44;7.07;;;1.30;;
57565;SDS011;63999;43.882;-0.310;2023-07-13T09:55:55;2.78;;;0.80;;
57565;SDS011;63999;43.882;-0.310;2023-07-13T09:58:13;1.75;;;0.82;;
57565;SDS011;63999;43.882;-0.310;2023-07-13T10:00:43;3.85;;;1.05;;
57565;SDS011;63999;43.882;-0.310;2023-07-13T10:03:22;5.33;;;0.93;;
57565;SDS011;63999;43.882;-0.310;2023-07-13T10:08:39;2.97;;;0.95;;
57565;SDS011;63999;43.882;-0.310;2023-07-13T10:16:43;2.20;;;0.90;;
57565;SDS011;63999;43.882;-0.310;2023-07-13T10:19:18;2.45;;;0.90;;
57565;SDS011;63999;43.882;-0.310;2023-07-13T10:21:56;3.80;;;0.95;;
57565;SDS011;63999;43.882;-0.310;2023-07-13T10:24:33;4.97;;;1.38;;
57565;SDS011;63999;43.882;-0.310;2023-07-13T10:32:36;4.95;;;1.10;;
57565;SDS011;63999;43.882;-0.310;2023-07-13T10:35:02;2.47;;;0.90;;
57565;SDS011;63999;43.882;-0.310;2023-07-13T10:38:10;3.78;;;0.90;;
57565;SDS011;63999;43.882;-0.310;2023-07-13T10:40:56;2.50;;;1.00;;
57565;SDS011;63999;43.882;-0.310;2023-07-13T10:43:37;3.05;;;1.00;;
57565;SDS011;63999;43.882;-0.310;2023-07-13T10:46:14;2.13;;;0.90;;
57565;SDS011;63999;43.882;-0.310;2023-07-13T10:49:06;0.93;;;0.77;;
57565;SDS011;63999;43.882;-0.310;2023-07-13T10:54:18;2.35;;;1.00;;
57565;SDS011;63999;43.882;-0.310;2023-07-13T10:56:53;1.88;;;0.98;;
57565;SDS011;63999;43.882;-0.310;2023-07-13T10:59:46;2.42;;;0.75;;
57565;SDS011;63999;43.882;-0.310;2023-07-13T11:02:40;3.75;;;1.05;;
57565;SDS011;63999;43.882;-0.310;2023-07-13T11:08:18;2.75;;;1.10;;
57565;SDS011;63999;43.882;-0.310;2023-07-13T11:10:55;4.22;;;1.10;;
57565;SDS011;63999;43.882;-0.310;2023-07-13T11:13:36;1.60;;;1.00;;
57565;SDS011;63999;43.882;-0.310;2023-07-13T11:16:21;2.90;;;1.10;;
57565;SDS011;63999;43.882;-0.310;2023-07-13T11:24:49;1.83;;;0.80;;
57565;SDS011;63999;43.882;-0.310;2023-07-13T11:27:37;2.05;;;0.88;;
57565;SDS011;63999;43.882;-0.310;2023-07-13T11:41:21;3.50;;;1.15;;
57565;SDS011;63999;43.882;-0.310;2023-07-13T11:43:55;2.45;;;1.00;;
57565;SDS011;63999;43.882;-0.310;2023-07-13T11:46:37;3.22;;;1.10;;
57565;SDS011;63999;43.882;-0.310;2023-07-13T11:49:29;1.95;;;0.90;;
57565;SDS011;63999;43.882;-0.310;2023-07-13T11:51:57;3.05;;;0.77;;
57565;SDS011;63999;43.882;-0.310;2023-07-13T11:56:59;6.38;;;1.17;;
57565;SDS011;63999;43.882;-0.310;2023-07-13T11:59:38;2.22;;;0.90;;
57565;SDS011;63999;43.882;-0.310;2023-07-13T12:02:13;2.55;;;1.08;;
57565;SDS011;63999;43.882;-0.310;2023-07-13T12:04:42;3.72;;;1.08;;
57565;SDS011;63999;43.882;-0.310;2023-07-13T12:07:16;3.67;;;0.77;;
57565;SDS011;63999;43.882;-0.310;2023-07-13T12:09:49;1.83;;;0.65;;
57565;SDS011;63999;43.882;-0.310;2023-07-13T12:12:20;3.00;;;0.80;;
57565;SDS011;63999;43.882;-0.310;2023-07-13T12:14:59;2.60;;;0.80;;
57565;SDS011;63999;43.882;-0.310;2023-07-13T12:17:25;2.70;;;0.90;;
57565;SDS011;63999;43.882;-0.310;2023-07-13T12:19:54;2.10;;;0.90;;
57565;SDS011;63999;43.882;-0.310;2023-07-13T12:22:27;1.50;;;0.85;;
57565;SDS011;63999;43.882;-0.310;2023-07-13T12:25:04;2.53;;;0.90;;
57565;SDS011;63999;43.882;-0.310;2023-07-13T12:27:42;4.13;;;1.00;;
57565;SDS011;63999;43.882;-0.310;2023-07-13T12:33:24;2.25;;;0.90;;
57565;SDS011;63999;43.882;-0.310;2023-07-13T12:35:48;2.80;;;0.90;;
57565;SDS011;63999;43.882;-0.310;2023-07-13T12:38:19;2.08;;;0.98;;
57565;SDS011;63999;43.882;-0.310;2023-07-13T12:40:55;1.00;;;0.50;;
57565;SDS011;63999;43.882;-0.310;2023-07-13T12:43:33;3.15;;;0.85;;
57565;SDS011;63999;43.882;-0.310;2023-07-13T12:46:23;2.95;;;0.80;;
57565;SDS011;63999;43.882;-0.310;2023-07-13T12:48:56;3.10;;;0.90;;
57565;SDS011;63999;43.882;-0.310;2023-07-13T12:51:27;2.92;;;0.80;;
57565;SDS011;63999;43.882;-0.310;2023-07-13T12:54:06;1.20;;;0.68;;
57565;SDS011;63999;43.882;-0.310;2023-07-13T12:56:49;1.52;;;0.80;;
57565;SDS011;63999;43.882;-0.310;2023-07-13T12:59:29;1.02;;;0.63;;
57565;SDS011;63999;43.882;-0.310;2023-07-13T13:02:18;2.42;;;0.90;;
57565;SDS011;63999;43.882;-0.310;2023-07-13T13:05:01;3.35;;;0.80;;
57565;SDS011;63999;43.882;-0.310;2023-07-13T13:07:36;5.15;;;0.90;;
57565;SDS011;63999;43.882;-0.310;2023-07-13T13:10:15;2.67;;;0.95;;
57565;SDS011;63999;43.882;-0.310;2023-07-13T13:12:50;1.48;;;0.70;;
57565;SDS011;63999;43.882;-0.310;2023-07-13T13:15:17;4.28;;;0.82;;
57565;SDS011;63999;43.882;-0.310;2023-07-13T13:17:50;4.28;;;0.90;;
57565;SDS011;63999;43.882;-0.310;2023-07-13T13:20:20;3.88;;;1.10;;
57565;SDS011;63999;43.882;-0.310;2023-07-13T13:22:53;1.58;;;0.77;;
57565;SDS011;63999;43.882;-0.310;2023-07-13T13:25:22;2.25;;;0.90;;
57565;SDS011;63999;43.882;-0.310;2023-07-13T13:27:53;4.28;;;0.93;;
57565;SDS011;63999;43.882;-0.310;2023-07-13T13:30:21;7.70;;;0.93;;
57565;SDS011;63999;43.882;-0.310;2023-07-13T13:32:55;3.55;;;0.85;;
57565;SDS011;63999;43.882;-0.310;2023-07-13T13:35:23;3.58;;;0.95;;
57565;SDS011;63999;43.882;-0.310;2023-07-13T13:37:55;1.50;;;0.80;;
57565;SDS011;63999;43.882;-0.310;2023-07-13T13:40:21;2.25;;;0.80;;
57565;SDS011;63999;43.882;-0.310;2023-07-13T13:42:50;1.58;;;1.10;;
57565;SDS011;63999;43.882;-0.310;2023-07-13T13:45:21;4.10;;;1.05;;
57565;SDS011;63999;43.882;-0.310;2023-07-13T13:47:55;1.85;;;0.98;;
57565;SDS011;63999;43.882;-0.310;2023-07-13T13:50:27;1.20;;;0.57;;
57565;SDS011;63999;43.882;-0.310;2023-07-13T13:52:59;2.95;;;0.85;;
57565;SDS011;63999;43.882;-0.310;2023-07-13T13:55:27;1.75;;;1.05;;
57565;SDS011;63999;43.882;-0.310;2023-07-13T13:58:01;2.58;;;0.80;;
57565;SDS011;63999;43.882;-0.310;2023-07-13T14:00:29;3.50;;;1.00;;
57565;SDS011;63999;43.882;-0.310;2023-07-13T14:02:58;1.92;;;1.08;;
57565;SDS011;63999;43.882;-0.310;2023-07-13T14:05:32;1.65;;;0.85;;
57565;SDS011;63999;43.882;-0.310;2023-07-13T14:07:58;1.10;;;0.80;;
57565;SDS011;63999;43.882;-0.310;2023-07-13T14:10:32;2.20;;;0.80;;
57565;SDS011;63999;43.882;-0.310;2023-07-13T14:13:01;3.78;;;1.20;;
57565;SDS011;63999;43.882;-0.310;2023-07-13T14:15:34;2.38;;;0.90;;
57565;SDS011;63999;43.882;-0.310;2023-07-13T14:18:03;2.25;;;0.80;;
57565;SDS011;63999;43.882;-0.310;2023-07-13T14:20:29;3.33;;;0.98;;
57565;SDS011;63999;43.882;-0.310;2023-07-13T14:22:58;3.45;;;0.93;;
57565;SDS011;63999;43.882;-0.310;2023-07-13T14:25:26;3.20;;;1.10;;
57565;SDS011;63999;43.882;-0.310;2023-07-13T14:27:58;3.97;;;0.90;;
57565;SDS011;63999;43.882;-0.310;2023-07-13T14:30:35;2.25;;;0.93;;
57565;SDS011;63999;43.882;-0.310;2023-07-13T14:33:13;1.45;;;0.90;;
57565;SDS011;63999;43.882;-0.310;2023-07-13T14:38:11;3.78;;;1.20;;
57565;SDS011;63999;43.882;-0.310;2023-07-13T14:40:40;2.65;;;1.25;;
57565;SDS011;63999;43.882;-0.310;2023-07-13T14:43:14;8.20;;;1.85;;
57565;SDS011;63999;43.882;-0.310;2023-07-13T14:45:55;4.97;;;1.05;;
57565;SDS011;63999;43.882;-0.310;2023-07-13T14:48:29;1.92;;;0.80;;
57565;SDS011;63999;43.882;-0.310;2023-07-13T14:51:01;2.85;;;1.00;;
57565;SDS011;63999;43.882;-0.310;2023-07-13T14:53:27;3.20;;;1.05;;
57565;SDS011;63999;43.882;-0.310;2023-07-13T14:56:16;2.17;;;0.90;;
57565;SDS011;63999;43.882;-0.310;2023-07-13T14:58:50;1.58;;;0.65;;
57565;SDS011;63999;43.882;-0.310;2023-07-13T15:01:24;1.55;;;0.75;;
57565;SDS011;63999;43.882;-0.310;2023-07-13T15:03:53;0.93;;;0.60;;
57565;SDS011;63999;43.882;-0.310;2023-07-13T15:07:04;0.85;;;0.68;;
57565;SDS011;63999;43.882;-0.310;2023-07-13T15:09:33;1.40;;;1.10;;
57565;SDS011;63999;43.882;-0.310;2023-07-13T15:12:01;2.15;;;0.77;;
57565;SDS011;63999;43.882;-0.310;2023-07-13T15:14:30;1.58;;;0.98;;
57565;SDS011;63999;43.882;-0.310;2023-07-13T15:19:31;2.22;;;0.90;;
57565;SDS011;63999;43.882;-0.310;2023-07-13T15:22:00;1.35;;;0.80;;
57565;SDS011;63999;43.882;-0.310;2023-07-13T15:24:30;1.70;;;0.73;;
57565;SDS011;63999;43.882;-0.310;2023-07-13T15:27:04;2.28;;;1.00;;
57565;SDS011;63999;43.882;-0.310;2023-07-13T15:29:36;2.67;;;1.02;;
57565;SDS011;63999;43.882;-0.310;2023-07-13T15:32:08;3.13;;;0.80;;
57565;SDS011;63999;43.882;-0.310;2023-07-13T15:34:42;1.90;;;0.75;;
57565;SDS011;63999;43.882;-0.310;2023-07-13T15:37:13;2.55;;;1.17;;
57565;SDS011;63999;43.882;-0.310;2023-07-13T15:39:51;3.35;;;0.98;;
57565;SDS011;63999;43.882;-0.310;2023-07-13T15:42:20;4.28;;;1.08;;
57565;SDS011;63999;43.882;-0.310;2023-07-13T15:44:53;4.60;;;1.13;;
57565;SDS011;63999;43.882;-0.310;2023-07-13T15:47:31;8.20;;;1.33;;
57565;SDS011;63999;43.882;-0.310;2023-07-13T15:50:05;5.88;;;1.23;;
57565;SDS011;63999;43.882;-0.310;2023-07-13T15:53:07;4.28;;;0.90;;
57565;SDS011;63999;43.882;-0.310;2023-07-13T15:55:36;1.30;;;0.70;;
57565;SDS011;63999;43.882;-0.310;2023-07-13T15:58:09;4.43;;;0.70;;
57565;SDS011;63999;43.882;-0.310;2023-07-13T16:00:43;4.65;;;0.80;;
57565;SDS011;63999;43.882;-0.310;2023-07-13T16:03:16;2.28;;;0.93;;
57565;SDS011;63999;43.882;-0.310;2023-07-13T16:05:48;3.88;;;0.90;;
57565;SDS011;63999;43.882;-0.310;2023-07-13T16:08:24;2.13;;;0.90;;
57565;SDS011;63999;43.882;-0.310;2023-07-13T16:10:56;3.78;;;0.80;;
57565;SDS011;63999;43.882;-0.310;2023-07-13T16:13:25;2.35;;;1.00;;
57565;SDS011;63999;43.882;-0.310;2023-07-13T16:15:57;1.85;;;0.70;;
57565;SDS011;63999;43.882;-0.310;2023-07-13T16:18:28;1.10;;;0.85;;
57565;SDS011;63999;43.882;-0.310;2023-07-13T16:23:31;2.50;;;0.90;;